sensor_id;sensor_type;location;lat;lon;timestamp;P1;durP1;ratioP1;P2;durP2;ratioP2
71955;SDS011;59829;50.562;6.258;2024-03-02T00:06:33;0.98;;;0.30;;
71955;SDS011;59829;50.562;6.258;2024-03-02T00:16:34;1.92;;;0.40;;
71955;SDS011;59829;50.562;6.258;2024-03-02T00:26:37;1.17;;;0.33;;
71955;SDS011;59829;50.562;6.258;2024-03-02T00:36:37;1.48;;;0.30;;
71955;SDS011;59829;50.562;6.258;2024-03-02T00:46:41;0.75;;;0.20;;
71955;SDS011;59829;50.562;6.258;2024-03-02T00:56:43;1.77;;;0.40;;
71955;SDS011;59829;50.562;6.258;2024-03-02T01:06:44;0.95;;;0.30;;
71955;SDS011;59829;50.562;6.258;2024-03-02T01:16:44;0.50;;;0.30;;
71955;SDS011;59829;50.562;6.258;2024-03-02T01:26:44;0.22;;;0.20;;
71955;SDS011;59829;50.562;6.258;2024-03-02T01:36:45;0.50;;;0.20;;
71955;SDS011;59829;50.562;6.258;2024-03-02T01:46:45;1.00;;;0.30;;
71955;SDS011;59829;50.562;6.258;2024-03-02T01:56:45;0.73;;;0.22;;
71955;SDS011;59829;50.562;6.258;2024-03-02T02:06:46;0.70;;;0.20;;
71955;SDS011;59829;50.562;6.258;2024-03-02T02:16:46;0.50;;;0.30;;
71955;SDS011;59829;50.562;6.258;2024-03-02T02:26:46;0.60;;;0.30;;
71955;SDS011;59829;50.562;6.258;2024-03-02T02:36:47;0.55;;;0.38;;
71955;SDS011;59829;50.562;6.258;2024-03-02T02:46:47;1.67;;;0.30;;
71955;SDS011;59829;50.562;6.258;2024-03-02T02:56:48;1.25;;;0.47;;
71955;SDS011;59829;50.562;6.258;2024-03-02T03:06:48;0.98;;;0.50;;
71955;SDS011;59829;50.562;6.258;2024-03-02T03:16:48;0.68;;;0.32;;
71955;SDS011;59829;50.562;6.258;2024-03-02T03:26:50;2.17;;;0.60;;
71955;SDS011;59829;50.562;6.258;2024-03-02T03:36:50;0.75;;;0.40;;
71955;SDS011;59829;50.562;6.258;2024-03-02T03:46:50;1.23;;;0.55;;
71955;SDS011;59829;50.562;6.258;2024-03-02T03:56:51;0.73;;;0.35;;
71955;SDS011;59829;50.562;6.258;2024-03-02T04:06:51;1.27;;;0.28;;
71955;SDS011;59829;50.562;6.258;2024-03-02T04:16:51;0.60;;;0.30;;
71955;SDS011;59829;50.562;6.258;2024-03-02T04:26:52;0.40;;;0.20;;
71955;SDS011;59829;50.562;6.258;2024-03-02T04:36:52;0.45;;;0.22;;
71955;SDS011;59829;50.562;6.258;2024-03-02T04:46:52;0.32;;;0.20;;
71955;SDS011;59829;50.562;6.258;2024-03-02T04:56:53;0.57;;;0.22;;
71955;SDS011;59829;50.562;6.258;2024-03-02T05:06:53;0.40;;;0.20;;
71955;SDS011;59829;50.562;6.258;2024-03-02T05:16:56;0.20;;;0.20;;
71955;SDS011;59829;50.562;6.258;2024-03-02T05:26:56;0.65;;;0.20;;
71955;SDS011;59829;50.562;6.258;2024-03-02T05:36:56;0.40;;;0.20;;
71955;SDS011;59829;50.562;6.258;2024-03-02T05:46:57;0.50;;;0.20;;
71955;SDS011;59829;50.562;6.258;2024-03-02T05:56:58;0.88;;;0.20;;
71955;SDS011;59829;50.562;6.258;2024-03-02T06:07:16;0.32;;;0.10;;
71955;SDS011;59829;50.562;6.258;2024-03-02T06:17:16;0.47;;;0.20;;
71955;SDS011;59829;50.562;6.258;2024-03-02T06:27:17;0.28;;;0.10;;
71955;SDS011;59829;50.562;6.258;2024-03-02T06:37:17;0.22;;;0.10;;
71955;SDS011;59829;50.562;6.258;2024-03-02T06:47:17;0.40;;;0.10;;
71955;SDS011;59829;50.562;6.258;2024-03-02T06:57:20;0.37;;;0.10;;
71955;SDS011;59829;50.562;6.258;2024-03-02T07:07:20;0.23;;;0.10;;
71955;SDS011;59829;50.562;6.258;2024-03-02T07:17:21;1.40;;;0.40;;
71955;SDS011;59829;50.562;6.258;2024-03-02T07:27:21;1.00;;;0.50;;
71955;SDS011;59829;50.562;6.258;2024-03-02T07:37:22;1.75;;;0.55;;
71955;SDS011;59829;50.562;6.258;2024-03-02T07:47:23;1.15;;;0.40;;
71955;SDS011;59829;50.562;6.258;2024-03-02T07:57:24;0.93;;;0.50;;
71955;SDS011;59829;50.562;6.258;2024-03-02T08:07:24;0.70;;;0.40;;
71955;SDS011;59829;50.562;6.258;2024-03-02T08:17:25;0.80;;;0.40;;
71955;SDS011;59829;50.562;6.258;2024-03-02T08:27:25;0.55;;;0.30;;
71955;SDS011;59829;50.562;6.258;2024-03-02T08:37:26;0.57;;;0.38;;
71955;SDS011;59829;50.562;6.258;2024-03-02T08:47:27;0.63;;;0.38;;
71955;SDS011;59829;50.562;6.258;2024-03-02T08:57:27;0.77;;;0.30;;
71955;SDS011;59829;50.562;6.258;2024-03-02T09:07:28;0.73;;;0.40;;
71955;SDS011;59829;50.562;6.258;2024-03-02T09:17:28;0.90;;;0.32;;
71955;SDS011;59829;50.562;6.258;2024-03-02T09:27:29;0.30;;;0.20;;
71955;SDS011;59829;50.562;6.258;2024-03-02T09:37:29;0.28;;;0.20;;
71955;SDS011;59829;50.562;6.258;2024-03-02T09:47:30;0.45;;;0.10;;
71955;SDS011;59829;50.562;6.258;2024-03-02T09:57:30;0.50;;;0.20;;
71955;SDS011;59829;50.562;6.258;2024-03-02T10:07:30;0.50;;;0.20;;
71955;SDS011;59829;50.562;6.258;2024-03-02T10:17:31;0.57;;;0.20;;
71955;SDS011;59829;50.562;6.258;2024-03-02T10:27:31;0.30;;;0.20;;
71955;SDS011;59829;50.562;6.258;2024-03-02T10:37:34;0.90;;;0.10;;
71955;SDS011;59829;50.562;6.258;2024-03-02T10:47:35;0.97;;;0.23;;
71955;SDS011;59829;50.562;6.258;2024-03-02T11:08:00;1.50;;;0.30;;
71955;SDS011;59829;50.562;6.258;2024-03-02T11:18:05;0.40;;;0.20;;
71955;SDS011;59829;50.562;6.258;2024-03-02T11:28:08;0.85;;;0.20;;
71955;SDS011;59829;50.562;6.258;2024-03-02T11:38:11;0.40;;;0.20;;
71955;SDS011;59829;50.562;6.258;2024-03-02T11:48:14;1.27;;;0.38;;
71955;SDS011;59829;50.562;6.258;2024-03-02T11:58:16;0.98;;;0.30;;
71955;SDS011;59829;50.562;6.258;2024-03-02T12:08:26;0.70;;;0.30;;
71955;SDS011;59829;50.562;6.258;2024-03-02T12:18:27;1.08;;;0.20;;
71955;SDS011;59829;50.562;6.258;2024-03-02T12:28:28;0.82;;;0.30;;
71955;SDS011;59829;50.562;6.258;2024-03-02T12:38:28;0.60;;;0.30;;
71955;SDS011;59829;50.562;6.258;2024-03-02T12:48:29;0.85;;;0.30;;
71955;SDS011;59829;50.562;6.258;2024-03-02T12:58:30;0.88;;;0.30;;
71955;SDS011;59829;50.562;6.258;2024-03-02T13:08:31;0.82;;;0.30;;
71955;SDS011;59829;50.562;6.258;2024-03-02T13:18:33;0.50;;;0.20;;
71955;SDS011;59829;50.562;6.258;2024-03-02T13:28:33;0.50;;;0.28;;
71955;SDS011;59829;50.562;6.258;2024-03-02T13:38:34;0.70;;;0.40;;
71955;SDS011;59829;50.562;6.258;2024-03-02T13:48:34;1.00;;;0.43;;
71955;SDS011;59829;50.562;6.258;2024-03-02T13:58:34;0.40;;;0.30;;
71955;SDS011;59829;50.562;6.258;2024-03-02T14:08:35;0.45;;;0.30;;
71955;SDS011;59829;50.562;6.258;2024-03-02T14:18:36;0.60;;;0.20;;
71955;SDS011;59829;50.562;6.258;2024-03-02T14:28:36;0.55;;;0.30;;
71955;SDS011;59829;50.562;6.258;2024-03-02T14:38:37;1.42;;;0.45;;
71955;SDS011;59829;50.562;6.258;2024-03-02T14:48:38;1.15;;;0.60;;
71955;SDS011;59829;50.562;6.258;2024-03-02T14:58:39;1.58;;;0.70;;
71955;SDS011;59829;50.562;6.258;2024-03-02T15:08:39;0.93;;;0.43;;
71955;SDS011;59829;50.562;6.258;2024-03-02T15:18:41;0.85;;;0.40;;
71955;SDS011;59829;50.562;6.258;2024-03-02T15:28:41;0.60;;;0.40;;
71955;SDS011;59829;50.562;6.258;2024-03-02T15:38:42;0.60;;;0.40;;
71955;SDS011;59829;50.562;6.258;2024-03-02T15:48:43;0.82;;;0.40;;
71955;SDS011;59829;50.562;6.258;2024-03-02T15:58:44;1.13;;;0.30;;
71955;SDS011;59829;50.562;6.258;2024-03-02T16:08:46;1.00;;;0.43;;
71955;SDS011;59829;50.562;6.258;2024-03-02T16:18:46;1.25;;;0.50;;
71955;SDS011;59829;50.562;6.258;2024-03-02T16:28:46;2.33;;;0.57;;
71955;SDS011;59829;50.562;6.258;2024-03-02T16:38:47;2.20;;;1.10;;
71955;SDS011;59829;50.562;6.258;2024-03-02T16:48:47;3.33;;;1.30;;
71955;SDS011;59829;50.562;6.258;2024-03-02T16:58:47;3.10;;;1.08;;
71955;SDS011;59829;50.562;6.258;2024-03-02T17:08:48;2.90;;;1.08;;
71955;SDS011;59829;50.562;6.258;2024-03-02T17:18:48;3.13;;;1.10;;
71955;SDS011;59829;50.562;6.258;2024-03-02T17:28:48;3.72;;;1.05;;
71955;SDS011;59829;50.562;6.258;2024-03-02T17:38:49;2.50;;;0.82;;
71955;SDS011;59829;50.562;6.258;2024-03-02T17:48:49;2.20;;;0.85;;
71955;SDS011;59829;50.562;6.258;2024-03-02T17:58:50;2.58;;;1.13;;
71955;SDS011;59829;50.562;6.258;2024-03-02T18:08:50;3.35;;;1.30;;
71955;SDS011;59829;50.562;6.258;2024-03-02T18:18:50;3.60;;;1.15;;
71955;SDS011;59829;50.562;6.258;2024-03-02T18:28:51;3.47;;;1.40;;
71955;SDS011;59829;50.562;6.258;2024-03-02T18:38:51;3.63;;;1.20;;
71955;SDS011;59829;50.562;6.258;2024-03-02T18:48:51;3.33;;;1.10;;
71955;SDS011;59829;50.562;6.258;2024-03-02T18:58:52;1.95;;;0.93;;
71955;SDS011;59829;50.562;6.258;2024-03-02T19:08:52;1.30;;;0.75;;
71955;SDS011;59829;50.562;6.258;2024-03-02T19:18:52;2.83;;;0.90;;
71955;SDS011;59829;50.562;6.258;2024-03-02T19:28:53;3.92;;;1.30;;
71955;SDS011;59829;50.562;6.258;2024-03-02T19:38:53;3.70;;;1.05;;
71955;SDS011;59829;50.562;6.258;2024-03-02T19:48:53;3.05;;;1.17;;
71955;SDS011;59829;50.562;6.258;2024-03-02T19:58:54;2.17;;;1.02;;
71955;SDS011;59829;50.562;6.258;2024-03-02T20:08:54;3.10;;;1.20;;
71955;SDS011;59829;50.562;6.258;2024-03-02T20:18:54;2.88;;;1.15;;
71955;SDS011;59829;50.562;6.258;2024-03-02T20:28:55;2.75;;;1.00;;
71955;SDS011;59829;50.562;6.258;2024-03-02T20:38:56;2.00;;;0.88;;
71955;SDS011;59829;50.562;6.258;2024-03-02T20:48:57;2.42;;;1.00;;
71955;SDS011;59829;50.562;6.258;2024-03-02T20:58:58;2.47;;;1.05;;
71955;SDS011;59829;50.562;6.258;2024-03-02T21:08:58;3.35;;;1.20;;
71955;SDS011;59829;50.562;6.258;2024-03-02T21:18:58;1.73;;;0.85;;
71955;SDS011;59829;50.562;6.258;2024-03-02T21:28:59;2.17;;;0.90;;
71955;SDS011;59829;50.562;6.258;2024-03-02T21:38:59;2.40;;;1.00;;
71955;SDS011;59829;50.562;6.258;2024-03-02T21:48:59;2.25;;;1.00;;
71955;SDS011;59829;50.562;6.258;2024-03-02T21:59:00;2.13;;;0.90;;
71955;SDS011;59829;50.562;6.258;2024-03-02T22:09:00;3.63;;;1.13;;
71955;SDS011;59829;50.562;6.258;2024-03-02T22:19:01;2.67;;;0.88;;
71955;SDS011;59829;50.562;6.258;2024-03-02T22:29:01;1.70;;;0.80;;
71955;SDS011;59829;50.562;6.258;2024-03-02T22:39:02;1.60;;;0.82;;
71955;SDS011;59829;50.562;6.258;2024-03-02T22:49:02;1.85;;;0.88;;
71955;SDS011;59829;50.562;6.258;2024-03-02T22:59:03;1.40;;;0.80;;
71955;SDS011;59829;50.562;6.258;2024-03-02T23:09:04;2.17;;;0.80;;
71955;SDS011;59829;50.562;6.258;2024-03-02T23:19:04;1.90;;;0.73;;
71955;SDS011;59829;50.562;6.258;2024-03-02T23:29:05;1.88;;;0.80;;
71955;SDS011;59829;50.562;6.258;2024-03-02T23:39:05;0.75;;;0.60;;
71955;SDS011;59829;50.562;6.258;2024-03-02T23:49:06;1.25;;;0.63;;
71955;SDS011;59829;50.562;6.258;2024-03-02T23:59:07;1.50;;;0.70;;
